createdAt,value
2019-06-08T00:01:25.762Z,22.67
2019-06-08T00:03:57.966Z,22.27
2019-06-08T00:06:27.631Z,20.23
2019-06-08T00:08:59.010Z,20.13
2019-06-08T00:11:28.585Z,19.10
2019-06-08T00:13:58.059Z,19.50
2019-06-08T00:16:27.570Z,18.23
2019-06-08T00:18:57.100Z,17.30
2019-06-08T00:21:26.586Z,17.90
2019-06-08T00:23:56.370Z,16.83
2019-06-08T00:26:25.866Z,16.57
2019-06-08T00:28:55.349Z,15.33
2019-06-08T00:31:24.927Z,15.40
2019-06-08T00:33:54.381Z,14.90
2019-06-08T00:36:25.041Z,14.60
2019-06-08T00:38:54.627Z,14.07
2019-06-08T00:41:25.430Z,12.27
2019-06-08T00:43:57.461Z,8.83
2019-06-08T00:46:27.475Z,6.67
2019-06-08T00:48:56.968Z,6.17
2019-06-08T00:51:26.455Z,5.30
2019-06-08T00:53:55.950Z,5.67
2019-06-08T00:56:25.966Z,5.00
2019-06-08T00:58:55.660Z,4.03
2019-06-08T01:01:27.978Z,3.67
2019-06-08T01:03:56.687Z,2.77
2019-06-08T01:06:27.536Z,2.73
2019-06-08T01:08:57.489Z,2.27
2019-06-08T01:11:27.262Z,2.20
2019-06-08T01:13:56.996Z,1.90
2019-06-08T01:16:27.058Z,2.00
2019-06-08T01:18:56.767Z,1.70
2019-06-08T01:21:27.633Z,1.60
2019-06-08T01:23:57.338Z,1.80
2019-06-08T01:26:28.209Z,2.00
2019-06-08T01:28:58.197Z,1.60
2019-06-08T01:31:28.400Z,1.50
2019-06-08T01:33:58.329Z,1.60
2019-06-08T01:36:29.163Z,1.70
2019-06-08T01:38:58.822Z,1.53
2019-06-08T01:41:29.549Z,1.60
2019-06-08T01:43:59.776Z,1.60
2019-06-08T01:46:30.257Z,1.67
2019-06-08T01:49:00.295Z,1.30
2019-06-08T01:51:30.581Z,1.30
2019-06-08T01:54:00.284Z,1.30
2019-06-08T01:56:29.762Z,1.50
2019-06-08T01:58:59.237Z,1.27
2019-06-08T02:01:29.917Z,1.13
2019-06-08T02:03:59.418Z,1.10
2019-06-08T02:06:30.289Z,1.20
2019-06-08T02:09:00.139Z,1.27
2019-06-08T02:11:30.808Z,1.20
2019-06-08T02:14:00.430Z,1.07
2019-06-08T02:16:31.328Z,1.20
2019-06-08T02:19:02.155Z,1.23
2019-06-08T02:21:32.795Z,1.20
2019-06-08T02:24:02.414Z,1.00
2019-06-08T02:26:34.386Z,1.20
2019-06-08T02:29:03.125Z,1.20
2019-06-08T02:31:34.806Z,1.37
2019-06-08T02:34:04.304Z,1.30
2019-06-08T02:36:35.387Z,1.40
2019-06-08T02:39:07.407Z,1.40
2019-06-08T02:41:37.544Z,1.37
2019-06-08T02:44:07.222Z,1.30
2019-06-08T02:46:38.185Z,1.33
2019-06-08T02:49:07.872Z,1.53
2019-06-08T02:51:38.197Z,1.50
2019-06-08T02:54:07.796Z,1.40
2019-06-08T02:56:39.268Z,1.30
2019-06-08T02:59:09.057Z,1.50
2019-06-08T03:01:40.658Z,1.60
2019-06-08T03:04:10.345Z,1.73
2019-06-08T03:06:41.683Z,2.00
2019-06-08T03:09:11.138Z,1.80
2019-06-08T03:11:41.362Z,1.50
2019-06-08T03:14:10.893Z,1.90
2019-06-08T03:16:41.560Z,1.90
2019-06-08T03:19:21.968Z,1.97
2019-06-08T03:21:42.680Z,1.90
2019-06-08T03:24:12.150Z,2.70
2019-06-08T03:26:43.904Z,2.47
2019-06-08T03:29:12.747Z,3.30
2019-06-08T03:31:52.824Z,2.97
2019-06-08T03:34:13.708Z,3.57
2019-06-08T03:36:54.910Z,2.77
2019-06-08T03:39:14.960Z,2.50
2019-06-08T03:41:45.387Z,2.80
2019-06-08T03:44:14.821Z,2.40
2019-06-08T03:46:45.966Z,2.07
2019-06-08T03:49:15.536Z,1.90
2019-06-08T03:51:48.613Z,2.47
2019-06-08T03:54:16.308Z,2.40
2019-06-08T03:56:46.192Z,3.50
2019-06-08T03:59:15.926Z,8.63
2019-06-08T04:01:46.191Z,3.13
2019-06-08T04:04:15.672Z,2.70
2019-06-08T04:06:45.762Z,2.77
2019-06-08T04:09:15.541Z,2.67
2019-06-08T04:11:46.825Z,2.80
2019-06-08T04:14:16.839Z,2.73
2019-06-08T04:16:46.854Z,2.53
2019-06-08T04:19:16.577Z,2.70
2019-06-08T04:21:46.346Z,2.20
2019-06-08T04:24:16.296Z,2.00
2019-06-08T04:26:47.200Z,1.80
2019-06-08T04:29:16.805Z,2.13
2019-06-08T04:31:46.394Z,1.97
2019-06-08T04:34:15.853Z,1.70
2019-06-08T04:36:46.391Z,1.90
2019-06-08T04:39:16.556Z,1.90
2019-06-08T04:41:47.173Z,1.67
2019-06-08T04:44:17.008Z,2.10
2019-06-08T04:46:47.876Z,1.77
2019-06-08T04:49:17.988Z,1.70
2019-06-08T04:51:49.378Z,1.67
2019-06-08T04:54:18.659Z,1.50
2019-06-08T04:56:49.312Z,1.70
2019-06-08T04:59:19.092Z,1.70
2019-06-08T05:01:49.231Z,1.50
2019-06-08T05:04:18.910Z,1.50
2019-06-08T05:06:49.578Z,1.20
2019-06-08T05:09:19.556Z,1.30
2019-06-08T05:11:49.904Z,1.40
2019-06-08T05:14:19.791Z,1.27
2019-06-08T05:16:49.779Z,1.10
2019-06-08T05:19:19.571Z,1.20
2019-06-08T05:21:49.855Z,1.40
2019-06-08T05:24:19.544Z,1.00
2019-06-08T05:26:49.630Z,1.30
2019-06-08T05:29:19.336Z,1.00
2019-06-08T05:31:49.750Z,1.27
2019-06-08T05:34:19.428Z,1.10
2019-06-08T05:36:50.068Z,0.97
2019-06-08T05:39:19.651Z,0.97
2019-06-08T05:41:49.875Z,1.00
2019-06-08T05:44:19.357Z,1.27
2019-06-08T05:46:50.017Z,0.90
2019-06-08T05:49:19.820Z,1.10
2019-06-08T05:51:50.108Z,0.80
2019-06-08T05:54:19.788Z,1.20
2019-06-08T05:56:50.401Z,1.07
2019-06-08T05:59:20.255Z,0.90
2019-06-08T06:01:51.036Z,1.00
2019-06-08T06:04:21.340Z,0.93
2019-06-08T06:06:51.032Z,0.97
2019-06-08T06:09:20.799Z,1.00
2019-06-08T06:11:51.207Z,0.80
2019-06-08T06:14:20.793Z,1.47
2019-06-08T06:16:51.325Z,1.40
2019-06-08T06:19:21.338Z,1.27
2019-06-08T06:21:51.559Z,1.00
2019-06-08T06:24:21.231Z,1.30
2019-06-08T06:26:51.629Z,0.80
2019-06-08T06:29:21.332Z,1.10
2019-06-08T06:31:52.107Z,0.90
2019-06-08T06:34:21.905Z,0.87
2019-06-08T06:36:52.162Z,1.07
2019-06-08T06:39:21.726Z,1.00
2019-06-08T06:41:52.163Z,0.90
2019-06-08T06:44:21.648Z,1.00
2019-06-08T06:46:52.413Z,1.00
2019-06-08T06:49:21.985Z,1.10
2019-06-08T06:51:52.581Z,0.90
2019-06-08T06:54:22.295Z,1.00
2019-06-08T06:56:51.928Z,1.17
2019-06-08T06:59:21.387Z,1.00
2019-06-08T07:01:57.514Z,0.97
2019-06-08T07:04:26.782Z,0.97
2019-06-08T07:06:56.533Z,1.33
2019-06-08T07:09:25.980Z,0.80
2019-06-08T07:11:56.677Z,1.07
2019-06-08T07:14:26.385Z,0.80
2019-06-08T07:16:56.318Z,1.00
2019-06-08T07:19:27.051Z,0.73
2019-06-08T07:21:56.499Z,0.87
2019-06-08T07:24:25.995Z,0.83
2019-06-08T07:26:55.445Z,1.10
2019-06-08T07:29:25.899Z,0.70
2019-06-08T07:31:55.477Z,0.97
2019-06-08T07:34:24.937Z,0.93
2019-06-08T07:36:55.530Z,1.00
2019-06-08T07:39:25.117Z,1.03
2019-06-08T07:41:55.841Z,1.00
2019-06-08T07:44:25.551Z,1.00
2019-06-08T07:46:55.855Z,1.00
2019-06-08T07:49:25.974Z,0.90
2019-06-08T07:52:07.536Z,0.80
2019-06-08T07:54:30.043Z,0.83
2019-06-08T07:56:59.520Z,1.00
2019-06-08T07:59:29.248Z,0.90
2019-06-08T08:01:59.202Z,1.07
2019-06-08T08:04:28.685Z,0.87
2019-06-08T08:06:58.788Z,0.90
2019-06-08T08:09:37.560Z,0.90
2019-06-08T08:12:07.016Z,0.77
2019-06-08T08:14:36.762Z,1.10
2019-06-08T08:17:06.250Z,1.00
2019-06-08T08:19:38.124Z,1.10
2019-06-08T08:22:22.340Z,1.03
2019-06-08T08:24:38.846Z,0.90
2019-06-08T08:27:08.624Z,1.00
2019-06-08T08:29:43.978Z,0.90
2019-06-08T08:32:13.475Z,1.10
2019-06-08T08:34:43.170Z,0.73
2019-06-08T08:37:12.686Z,0.80
2019-06-08T08:39:43.120Z,1.07
2019-06-08T08:42:12.717Z,1.00
2019-06-08T08:44:42.489Z,1.00
2019-06-08T08:47:13.586Z,1.30
2019-06-08T08:49:43.398Z,1.00
2019-06-08T08:52:12.843Z,1.27
2019-06-08T08:54:42.910Z,1.13
2019-06-08T08:57:12.449Z,1.00
2019-06-08T08:59:41.945Z,1.23
2019-06-08T09:02:11.728Z,1.30
2019-06-08T09:04:41.174Z,0.93
2019-06-08T09:07:11.261Z,1.00
2019-06-08T09:09:40.906Z,1.03
2019-06-08T09:12:10.463Z,1.00
2019-06-08T09:14:41.629Z,1.07
2019-06-08T09:17:11.377Z,1.20
2019-06-08T09:19:40.845Z,1.00
2019-06-08T09:22:10.286Z,1.17
2019-06-08T09:24:40.254Z,1.10
2019-06-08T09:27:09.960Z,1.00
2019-06-08T09:29:39.906Z,0.90
2019-06-08T09:32:09.579Z,1.00
2019-06-08T09:34:39.038Z,0.83
2019-06-08T09:37:08.683Z,1.30
2019-06-08T09:39:38.867Z,1.17
2019-06-08T09:42:09.084Z,1.30
2019-06-08T09:44:38.703Z,1.03
2019-06-08T09:47:12.564Z,1.40
2019-06-08T09:49:39.324Z,1.00
2019-06-08T09:52:09.069Z,1.40
2019-06-08T09:54:38.914Z,1.07
2019-06-08T09:57:09.047Z,1.10
2019-06-08T09:59:38.996Z,1.53
2019-06-08T10:02:12.393Z,1.30
2019-06-08T10:04:39.599Z,1.30
2019-06-08T10:07:09.189Z,1.40
2019-06-08T10:09:38.697Z,1.33
2019-06-08T10:12:09.903Z,1.20
2019-06-08T10:14:39.694Z,1.40
2019-06-08T10:17:09.272Z,1.47
2019-06-08T10:19:38.841Z,1.40
2019-06-08T10:22:08.673Z,1.30
2019-06-08T10:24:41.344Z,1.27
2019-06-08T10:27:11.721Z,1.33
2019-06-08T10:29:40.856Z,1.30
2019-06-08T10:32:12.345Z,1.57
2019-06-08T10:34:41.812Z,1.30
2019-06-08T10:37:13.309Z,1.30
2019-06-08T10:39:42.694Z,1.53
2019-06-08T10:42:12.398Z,1.70
2019-06-08T10:44:41.841Z,1.50
2019-06-08T10:47:11.970Z,1.10
2019-06-08T10:49:41.868Z,1.17
2019-06-08T10:52:12.387Z,1.40
2019-06-08T10:54:41.914Z,1.35
2019-06-08T10:57:11.384Z,1.17
2019-06-08T10:59:40.920Z,1.52
2019-06-08T11:02:13.975Z,1.17
2019-06-08T11:04:43.368Z,1.47
2019-06-08T11:07:15.991Z,1.32
2019-06-08T11:09:44.519Z,1.10
2019-06-08T11:12:15.242Z,1.42
2019-06-08T11:14:48.040Z,1.17
2019-06-08T11:17:17.955Z,1.10
2019-06-08T11:19:48.075Z,1.50
2019-06-08T11:22:18.206Z,1.12
2019-06-08T11:24:48.679Z,1.45
2019-06-08T11:27:18.768Z,1.10
2019-06-08T11:29:48.432Z,1.50
2019-06-08T11:32:18.423Z,1.37
2019-06-08T11:34:48.802Z,1.30
2019-06-08T11:37:20.994Z,1.17
2019-06-08T11:39:49.571Z,1.07
2019-06-08T11:42:19.308Z,1.30
2019-06-08T11:44:51.238Z,1.30
2019-06-08T11:47:20.371Z,0.90
2019-06-08T11:49:50.056Z,1.12
2019-06-08T11:52:19.688Z,1.15
2019-06-08T11:54:49.149Z,1.05
2019-06-08T11:57:18.979Z,1.05
2019-06-08T11:59:49.112Z,1.10
2019-06-08T12:02:18.649Z,1.20
2019-06-08T12:04:48.126Z,1.30
2019-06-08T12:07:17.569Z,0.85
2019-06-08T12:09:49.913Z,0.90
2019-06-08T12:12:21.227Z,1.10
2019-06-08T12:14:49.725Z,0.90
2019-06-08T12:17:22.421Z,1.10
2019-06-08T12:19:50.393Z,1.65
2019-06-08T12:22:21.863Z,1.20
2019-06-08T12:24:51.417Z,1.12
2019-06-08T12:27:29.892Z,1.15
2019-06-08T12:29:52.056Z,1.22
2019-06-08T12:32:21.516Z,1.02
2019-06-08T12:34:50.964Z,1.30
2019-06-08T12:37:22.294Z,1.20
2019-06-08T12:39:51.589Z,1.20
2019-06-08T12:42:24.844Z,0.98
2019-06-08T12:44:52.236Z,1.22
2019-06-08T12:47:26.883Z,1.07
2019-06-08T12:49:53.393Z,1.20
2019-06-08T12:52:23.150Z,1.30
2019-06-08T12:55:02.487Z,1.10
2019-06-08T12:57:23.791Z,1.07
2019-06-08T12:59:53.239Z,1.22
2019-06-08T13:02:24.302Z,1.27
2019-06-08T13:04:54.032Z,1.00
2019-06-08T13:07:24.434Z,1.10
2019-06-08T13:09:53.996Z,1.22
2019-06-08T13:12:23.481Z,1.17
2019-06-08T13:14:52.922Z,1.60
2019-06-08T13:17:22.745Z,1.15
2019-06-08T13:19:52.189Z,1.20
2019-06-08T13:22:27.982Z,1.15
2019-06-08T13:24:52.813Z,1.40
2019-06-08T13:27:23.255Z,1.30
2019-06-08T13:29:53.159Z,0.98
2019-06-08T13:32:22.611Z,1.30
2019-06-08T13:34:52.068Z,1.00
2019-06-08T13:37:22.213Z,1.10
2019-06-08T13:39:51.745Z,1.27
2019-06-08T13:42:23.005Z,1.30
2019-06-08T13:44:52.599Z,1.30
2019-06-08T13:47:23.143Z,1.30
2019-06-08T13:49:52.574Z,1.47
2019-06-08T13:52:23.751Z,1.20
2019-06-08T13:54:53.906Z,1.32
2019-06-08T13:57:25.080Z,1.25
2019-06-08T13:59:54.935Z,1.00
2019-06-08T14:02:28.394Z,1.30
2019-06-08T14:04:55.552Z,1.10
2019-06-08T14:07:31.212Z,1.30
2019-06-08T14:09:58.169Z,1.40
2019-06-08T14:12:30.619Z,1.50
2019-06-08T14:14:58.550Z,1.57
2019-06-08T14:17:27.958Z,1.40
2019-06-08T14:19:59.333Z,1.27
2019-06-08T14:22:30.312Z,1.10
2019-06-08T14:25:00.254Z,1.27
2019-06-08T14:27:33.017Z,1.22
2019-06-08T14:30:01.235Z,1.20
2019-06-08T14:32:30.691Z,1.62
2019-06-08T14:35:02.793Z,1.20
2019-06-08T14:37:31.327Z,1.50
2019-06-08T14:40:01.014Z,1.30
2019-06-08T14:42:31.715Z,1.60
2019-06-08T14:45:01.333Z,1.45
2019-06-08T14:47:30.792Z,1.47
2019-06-08T14:50:01.559Z,1.50
2019-06-08T14:52:31.926Z,1.55
2019-06-08T14:55:01.387Z,1.60
2019-06-08T14:57:31.028Z,1.10
2019-06-08T15:00:00.500Z,1.45
2019-06-08T15:02:31.384Z,1.15
2019-06-08T15:05:01.700Z,1.30
2019-06-08T15:07:32.674Z,1.40
2019-06-08T15:10:02.394Z,1.52
2019-06-08T15:12:31.853Z,1.40
2019-06-08T15:15:01.304Z,1.57
2019-06-08T15:17:32.112Z,1.42
2019-06-08T15:20:01.750Z,1.30
2019-06-08T15:22:31.991Z,1.40
2019-06-08T15:25:01.578Z,1.35
2019-06-08T15:27:33.242Z,1.20
2019-06-08T15:30:02.188Z,1.40
2019-06-08T15:32:35.283Z,1.27
2019-06-08T15:35:03.873Z,1.55
2019-06-08T15:37:33.317Z,1.50
2019-06-08T15:40:03.361Z,1.70
2019-06-08T15:42:33.563Z,1.77
2019-06-08T15:45:04.231Z,1.20
2019-06-08T15:47:33.695Z,1.35
2019-06-08T15:50:04.693Z,2.05
2019-06-08T15:52:34.363Z,1.55
2019-06-08T15:55:05.220Z,1.55
2019-06-08T15:57:37.977Z,1.40
2019-06-08T16:00:09.666Z,1.77
2019-06-08T16:02:39.230Z,1.55
2019-06-08T16:05:08.916Z,1.30
2019-06-08T16:07:38.382Z,1.50
2019-06-08T16:10:08.592Z,1.52
2019-06-08T16:12:38.046Z,1.32
2019-06-08T16:15:08.712Z,1.47
2019-06-08T16:17:38.417Z,1.50
2019-06-08T16:20:08.029Z,2.00
2019-06-08T16:22:37.802Z,1.80
2019-06-08T16:25:07.318Z,1.75
2019-06-08T16:27:36.762Z,2.10
2019-06-08T16:30:09.472Z,1.57
2019-06-08T16:32:39.651Z,1.67
2019-06-08T16:35:09.593Z,1.85
2019-06-08T16:37:39.918Z,1.82
2019-06-08T16:40:09.772Z,1.67
2019-06-08T16:42:39.244Z,1.52
2019-06-08T16:45:08.858Z,1.47
2019-06-08T16:47:43.665Z,1.60
2019-06-08T16:50:24.146Z,2.20
2019-06-08T16:52:45.163Z,1.87
2019-06-08T16:55:14.695Z,2.12
2019-06-08T16:57:44.243Z,1.70
2019-06-08T17:00:31.611Z,1.80
2019-06-08T17:02:50.756Z,1.65
2019-06-08T17:05:20.350Z,1.30
2019-06-08T17:07:50.246Z,1.47
2019-06-08T17:10:19.688Z,1.45
2019-06-08T17:12:49.687Z,2.25
2019-06-08T17:15:19.262Z,1.72
2019-06-08T17:17:48.710Z,1.47
2019-06-08T17:20:18.190Z,1.60
2019-06-08T17:22:47.634Z,1.60
2019-06-08T17:25:17.138Z,1.90
2019-06-08T17:27:46.631Z,1.52
2019-06-08T17:30:16.050Z,2.02
2019-06-08T17:32:45.508Z,1.98
2019-06-08T17:35:14.958Z,1.85
2019-06-08T17:37:45.010Z,1.90
2019-06-08T17:40:14.646Z,1.52
2019-06-08T17:42:44.098Z,1.60
2019-06-08T17:45:14.564Z,2.20
2019-06-08T17:47:44.001Z,1.90
2019-06-08T17:50:13.714Z,1.80
2019-06-08T17:52:43.204Z,1.50
2019-06-08T17:55:13.189Z,1.70
2019-06-08T17:57:52.749Z,1.80
2019-06-08T18:00:14.119Z,2.00
2019-06-08T18:02:45.241Z,2.00
2019-06-08T18:05:14.829Z,2.57
2019-06-08T18:07:45.681Z,2.10
2019-06-08T18:10:17.798Z,1.70
2019-06-08T18:12:58.804Z,1.97
2019-06-08T18:15:28.686Z,1.67
2019-06-08T18:17:58.215Z,2.17
2019-06-08T18:20:28.282Z,1.70
2019-06-08T18:22:58.021Z,2.10
2019-06-08T18:25:27.935Z,2.40
2019-06-08T18:28:09.745Z,1.83
2019-06-08T18:30:29.198Z,2.07
2019-06-08T18:32:58.666Z,2.27
2019-06-08T18:35:28.414Z,2.13
2019-06-08T18:37:58.013Z,2.47
2019-06-08T18:40:27.794Z,2.00
2019-06-08T18:42:57.989Z,2.20
2019-06-08T18:45:27.786Z,2.17
2019-06-08T18:47:57.722Z,1.70
2019-06-08T18:50:28.470Z,2.00
2019-06-08T18:52:58.181Z,1.90
2019-06-08T18:55:27.953Z,2.03
2019-06-08T18:57:57.557Z,1.80
2019-06-08T19:00:39.793Z,1.80
2019-06-08T19:03:09.512Z,2.00
2019-06-08T19:05:43.536Z,1.97
2019-06-08T19:08:11.276Z,2.00
2019-06-08T19:10:42.343Z,2.00
2019-06-08T19:13:11.941Z,2.33
2019-06-08T19:15:44.437Z,3.60
2019-06-08T19:18:12.799Z,7.50
2019-06-08T19:20:44.869Z,7.83
2019-06-08T19:23:13.428Z,9.97
2019-06-08T19:25:45.832Z,10.40
2019-06-08T19:28:35.157Z,12.93
2019-06-08T19:30:51.776Z,14.33
2019-06-08T19:33:22.220Z,10.90
2019-06-08T19:35:53.968Z,7.70
2019-06-08T19:38:23.362Z,10.83
2019-06-08T19:40:54.122Z,8.63
2019-06-08T19:43:23.617Z,4.90
2019-06-08T19:45:53.199Z,4.20
2019-06-08T19:48:22.837Z,4.27
2019-06-08T19:50:54.262Z,4.70
2019-06-08T19:53:23.449Z,4.50
2019-06-08T19:55:54.180Z,5.00
2019-06-08T19:58:23.837Z,5.67
2019-06-08T20:00:54.931Z,4.43
2019-06-08T20:03:24.614Z,6.40
2019-06-08T20:05:55.053Z,7.63
2019-06-08T20:08:24.763Z,7.33
2019-06-08T20:10:54.238Z,8.10
2019-06-08T20:13:23.716Z,6.37
2019-06-08T20:15:58.245Z,5.80
2019-06-08T20:18:24.390Z,7.60
2019-06-08T20:20:54.569Z,14.60
2019-06-08T20:23:24.084Z,8.43
2019-06-08T20:25:53.852Z,16.17
2019-06-08T20:28:23.310Z,10.70
2019-06-08T20:30:52.777Z,10.73
2019-06-08T20:33:22.240Z,10.60
2019-06-08T20:35:51.977Z,13.70
2019-06-08T20:38:35.053Z,8.57
2019-06-08T20:40:57.818Z,10.30
2019-06-08T20:43:27.069Z,10.53
2019-06-08T20:45:57.510Z,11.60
2019-06-08T20:48:27.632Z,10.90
2019-06-08T20:50:57.341Z,8.30
2019-06-08T20:53:28.281Z,6.77
2019-06-08T20:55:58.253Z,6.43
2019-06-08T20:58:28.333Z,4.77
2019-06-08T21:00:57.965Z,5.73
2019-06-08T21:03:27.997Z,5.37
2019-06-08T21:05:58.167Z,6.37
2019-06-08T21:08:28.274Z,6.77
2019-06-08T21:10:58.703Z,6.30
2019-06-08T21:13:28.318Z,7.97
2019-06-08T21:16:00.540Z,8.60
2019-06-08T21:18:28.982Z,6.80
2019-06-08T21:20:58.476Z,8.07
2019-06-08T21:23:31.715Z,8.70
2019-06-08T21:26:00.144Z,8.60
2019-06-08T21:28:29.837Z,8.73
2019-06-08T21:31:02.238Z,11.13
2019-06-08T21:33:30.536Z,10.60
2019-06-08T21:36:04.964Z,8.90
2019-06-08T21:38:31.551Z,7.27
2019-06-08T21:41:02.921Z,8.43
2019-06-08T21:43:32.251Z,8.17
2019-06-08T21:46:01.730Z,9.13
2019-06-08T21:48:31.233Z,10.80
2019-06-08T21:51:01.763Z,13.23
2019-06-08T21:53:31.331Z,13.60
2019-06-08T21:56:01.075Z,13.67
2019-06-08T21:58:30.528Z,11.70
2019-06-08T22:01:01.151Z,10.80
2019-06-08T22:03:30.643Z,11.50
2019-06-08T22:06:00.284Z,14.33
2019-06-08T22:08:29.784Z,13.80
2019-06-08T22:11:00.670Z,13.97
2019-06-08T22:13:30.259Z,12.63
2019-06-08T22:16:02.066Z,9.27
2019-06-08T22:18:31.187Z,8.93
2019-06-08T22:21:01.211Z,7.60
2019-06-08T22:23:30.871Z,7.90
2019-06-08T22:26:01.202Z,7.50
2019-06-08T22:28:30.670Z,8.37
2019-06-08T22:31:01.629Z,7.90
2019-06-08T22:33:31.296Z,6.50
2019-06-08T22:36:00.992Z,6.33
2019-06-08T22:38:30.730Z,7.13
2019-06-08T22:41:01.653Z,7.30
2019-06-08T22:43:31.467Z,7.13
2019-06-08T22:46:02.262Z,8.53
2019-06-08T22:48:32.192Z,8.80
2019-06-08T22:51:03.186Z,8.40
2019-06-08T22:53:32.804Z,8.80
2019-06-08T22:56:03.056Z,9.00
2019-06-08T22:58:33.530Z,9.10
2019-06-08T23:01:06.411Z,8.30
2019-06-08T23:03:35.402Z,7.50
2019-06-08T23:06:08.159Z,7.53
2019-06-08T23:08:37.467Z,7.40
2019-06-08T23:11:08.427Z,6.63
2019-06-08T23:13:38.214Z,7.13
2019-06-08T23:16:08.851Z,7.40
2019-06-08T23:18:38.545Z,8.13
2019-06-08T23:21:08.871Z,7.33
2019-06-08T23:23:38.489Z,7.60
2019-06-08T23:26:10.321Z,7.33
2019-06-08T23:28:39.393Z,7.40
2019-06-08T23:31:19.690Z,7.60
2019-06-08T23:33:40.325Z,8.10
2019-06-08T23:36:46.589Z,7.70
2019-06-08T23:38:41.236Z,7.53
2019-06-08T23:41:10.701Z,8.23
2019-06-08T23:43:40.444Z,7.23
2019-06-08T23:46:09.892Z,6.97
2019-06-08T23:48:39.343Z,7.23
2019-06-08T23:51:10.932Z,7.37
2019-06-08T23:53:40.141Z,7.27
2019-06-08T23:56:11.750Z,6.67
2019-06-08T23:58:40.794Z,6.80
